sensor_id;sensor_type;location;lat;lon;timestamp;P1;durP1;ratioP1;P2;durP2;ratioP2
51560;SDS011;37654;51.262;17.058;2022-12-18T00:01:25;136.70;;;48.97;;
51560;SDS011;37654;51.262;17.058;2022-12-18T00:03:58;116.22;;;45.17;;
51560;SDS011;37654;51.262;17.058;2022-12-18T00:06:25;110.40;;;44.47;;
51560;SDS011;37654;51.262;17.058;2022-12-18T00:08:52;117.63;;;46.33;;
51560;SDS011;37654;51.262;17.058;2022-12-18T00:11:20;113.15;;;40.05;;
51560;SDS011;37654;51.262;17.058;2022-12-18T00:13:47;111.05;;;43.47;;
51560;SDS011;37654;51.262;17.058;2022-12-18T00:16:14;113.55;;;45.75;;
51560;SDS011;37654;51.262;17.058;2022-12-18T00:18:41;107.57;;;38.63;;
51560;SDS011;37654;51.262;17.058;2022-12-18T00:21:08;110.43;;;42.80;;
51560;SDS011;37654;51.262;17.058;2022-12-18T00:23:35;104.82;;;41.58;;
51560;SDS011;37654;51.262;17.058;2022-12-18T00:26:02;114.28;;;40.38;;
51560;SDS011;37654;51.262;17.058;2022-12-18T00:28:29;111.25;;;43.80;;
51560;SDS011;37654;51.262;17.058;2022-12-18T00:33:27;134.10;;;51.50;;
51560;SDS011;37654;51.262;17.058;2022-12-18T00:35:52;94.22;;;36.60;;
51560;SDS011;37654;51.262;17.058;2022-12-18T00:38:18;93.20;;;31.60;;
51560;SDS011;37654;51.262;17.058;2022-12-18T00:40:43;103.05;;;38.45;;
51560;SDS011;37654;51.262;17.058;2022-12-18T00:43:09;100.75;;;36.85;;
51560;SDS011;37654;51.262;17.058;2022-12-18T00:45:34;102.68;;;38.90;;
51560;SDS011;37654;51.262;17.058;2022-12-18T00:47:59;105.32;;;37.80;;
51560;SDS011;37654;51.262;17.058;2022-12-18T00:50:25;97.43;;;34.47;;
51560;SDS011;37654;51.262;17.058;2022-12-18T00:52:51;92.45;;;33.03;;
51560;SDS011;37654;51.262;17.058;2022-12-18T00:55:17;102.32;;;34.72;;
51560;SDS011;37654;51.262;17.058;2022-12-18T00:57:43;93.63;;;34.83;;
51560;SDS011;37654;51.262;17.058;2022-12-18T01:00:09;87.55;;;31.45;;
51560;SDS011;37654;51.262;17.058;2022-12-18T01:02:37;90.22;;;31.63;;
51560;SDS011;37654;51.262;17.058;2022-12-18T01:05:02;81.82;;;32.83;;
51560;SDS011;37654;51.262;17.058;2022-12-18T01:07:28;93.22;;;33.35;;
51560;SDS011;37654;51.262;17.058;2022-12-18T01:09:54;93.68;;;34.40;;
51560;SDS011;37654;51.262;17.058;2022-12-18T01:12:19;98.88;;;35.72;;
51560;SDS011;37654;51.262;17.058;2022-12-18T01:14:44;101.75;;;35.75;;
51560;SDS011;37654;51.262;17.058;2022-12-18T01:17:10;93.57;;;34.30;;
51560;SDS011;37654;51.262;17.058;2022-12-18T01:19:35;94.78;;;30.65;;
51560;SDS011;37654;51.262;17.058;2022-12-18T01:22:01;94.40;;;29.48;;
51560;SDS011;37654;51.262;17.058;2022-12-18T01:24:26;78.30;;;27.95;;
51560;SDS011;37654;51.262;17.058;2022-12-18T01:26:52;80.78;;;28.88;;
51560;SDS011;37654;51.262;17.058;2022-12-18T01:29:17;87.75;;;30.85;;
51560;SDS011;37654;51.262;17.058;2022-12-18T01:31:43;82.93;;;31.27;;
51560;SDS011;37654;51.262;17.058;2022-12-18T01:34:08;80.53;;;29.17;;
51560;SDS011;37654;51.262;17.058;2022-12-18T01:36:35;74.80;;;29.95;;
51560;SDS011;37654;51.262;17.058;2022-12-18T01:39:05;75.38;;;30.58;;
51560;SDS011;37654;51.262;17.058;2022-12-18T01:41:33;80.05;;;29.00;;
51560;SDS011;37654;51.262;17.058;2022-12-18T01:47:07;89.97;;;30.52;;
51560;SDS011;37654;51.262;17.058;2022-12-18T01:49:32;84.15;;;29.77;;
51560;SDS011;37654;51.262;17.058;2022-12-18T01:51:58;74.30;;;26.75;;
51560;SDS011;37654;51.262;17.058;2022-12-18T01:54:23;78.10;;;29.42;;
51560;SDS011;37654;51.262;17.058;2022-12-18T01:56:49;83.43;;;32.03;;
51560;SDS011;37654;51.262;17.058;2022-12-18T01:59:14;82.63;;;31.98;;
51560;SDS011;37654;51.262;17.058;2022-12-18T02:01:40;85.13;;;32.47;;
51560;SDS011;37654;51.262;17.058;2022-12-18T02:06:46;73.45;;;28.13;;
51560;SDS011;37654;51.262;17.058;2022-12-18T02:09:19;68.53;;;27.13;;
51560;SDS011;37654;51.262;17.058;2022-12-18T02:27:17;77.35;;;30.02;;
51560;SDS011;37654;51.262;17.058;2022-12-18T02:29:46;68.22;;;27.20;;
51560;SDS011;37654;51.262;17.058;2022-12-18T02:32:18;65.00;;;29.00;;
51560;SDS011;37654;51.262;17.058;2022-12-18T02:34:49;67.50;;;27.90;;
51560;SDS011;37654;51.262;17.058;2022-12-18T02:37:16;74.18;;;27.25;;
51560;SDS011;37654;51.262;17.058;2022-12-18T02:39:43;71.22;;;29.05;;
51560;SDS011;37654;51.262;17.058;2022-12-18T02:42:11;71.35;;;28.00;;
51560;SDS011;37654;51.262;17.058;2022-12-18T02:44:44;68.25;;;24.90;;
51560;SDS011;37654;51.262;17.058;2022-12-18T02:47:14;69.97;;;26.17;;
51560;SDS011;37654;51.262;17.058;2022-12-18T03:00:30;66.00;;;26.80;;
51560;SDS011;37654;51.262;17.058;2022-12-18T03:03:04;71.93;;;27.88;;
51560;SDS011;37654;51.262;17.058;2022-12-18T03:08:23;70.60;;;28.70;;
51560;SDS011;37654;51.262;17.058;2022-12-18T03:13:33;64.65;;;25.42;;
51560;SDS011;37654;51.262;17.058;2022-12-18T03:16:02;60.78;;;25.38;;
51560;SDS011;37654;51.262;17.058;2022-12-18T03:21:03;64.72;;;27.08;;
51560;SDS011;37654;51.262;17.058;2022-12-18T03:23:33;63.75;;;25.35;;
51560;SDS011;37654;51.262;17.058;2022-12-18T03:26:05;66.70;;;26.90;;
51560;SDS011;37654;51.262;17.058;2022-12-18T03:28:35;66.93;;;27.80;;
51560;SDS011;37654;51.262;17.058;2022-12-18T03:31:04;57.20;;;25.75;;
51560;SDS011;37654;51.262;17.058;2022-12-18T03:36:17;79.35;;;31.25;;
51560;SDS011;37654;51.262;17.058;2022-12-18T03:38:43;70.38;;;30.65;;
51560;SDS011;37654;51.262;17.058;2022-12-18T03:46:06;67.65;;;29.25;;
51560;SDS011;37654;51.262;17.058;2022-12-18T03:48:46;68.05;;;27.38;;
51560;SDS011;37654;51.262;17.058;2022-12-18T03:51:24;60.72;;;25.55;;
51560;SDS011;37654;51.262;17.058;2022-12-18T03:53:55;56.00;;;24.95;;
51560;SDS011;37654;51.262;17.058;2022-12-18T03:56:25;69.13;;;26.33;;
51560;SDS011;37654;51.262;17.058;2022-12-18T03:58:54;60.00;;;27.08;;
51560;SDS011;37654;51.262;17.058;2022-12-18T04:01:23;60.30;;;25.80;;
51560;SDS011;37654;51.262;17.058;2022-12-18T04:03:53;60.88;;;26.98;;
51560;SDS011;37654;51.262;17.058;2022-12-18T04:06:20;61.75;;;25.80;;
51560;SDS011;37654;51.262;17.058;2022-12-18T04:08:46;54.25;;;26.83;;
51560;SDS011;37654;51.262;17.058;2022-12-18T04:11:12;54.13;;;25.25;;
51560;SDS011;37654;51.262;17.058;2022-12-18T04:13:38;59.22;;;26.50;;
51560;SDS011;37654;51.262;17.058;2022-12-18T04:16:04;61.10;;;26.48;;
51560;SDS011;37654;51.262;17.058;2022-12-18T04:18:29;63.08;;;26.77;;
51560;SDS011;37654;51.262;17.058;2022-12-18T04:20:55;63.45;;;26.33;;
51560;SDS011;37654;51.262;17.058;2022-12-18T04:23:20;62.13;;;27.85;;
51560;SDS011;37654;51.262;17.058;2022-12-18T04:25:46;63.42;;;25.98;;
51560;SDS011;37654;51.262;17.058;2022-12-18T04:28:12;63.40;;;26.48;;
51560;SDS011;37654;51.262;17.058;2022-12-18T04:30:37;60.22;;;23.40;;
51560;SDS011;37654;51.262;17.058;2022-12-18T04:33:03;53.60;;;21.65;;
51560;SDS011;37654;51.262;17.058;2022-12-18T04:35:28;46.50;;;20.70;;
51560;SDS011;37654;51.262;17.058;2022-12-18T04:37:54;53.08;;;20.92;;
51560;SDS011;37654;51.262;17.058;2022-12-18T04:40:19;53.10;;;22.42;;
51560;SDS011;37654;51.262;17.058;2022-12-18T04:42:44;49.65;;;19.33;;
51560;SDS011;37654;51.262;17.058;2022-12-18T04:45:10;52.78;;;21.40;;
51560;SDS011;37654;51.262;17.058;2022-12-18T04:47:35;53.17;;;21.50;;
51560;SDS011;37654;51.262;17.058;2022-12-18T04:50:01;53.30;;;21.73;;
51560;SDS011;37654;51.262;17.058;2022-12-18T04:52:26;58.10;;;21.25;;
51560;SDS011;37654;51.262;17.058;2022-12-18T04:54:52;52.03;;;22.33;;
51560;SDS011;37654;51.262;17.058;2022-12-18T04:57:17;48.80;;;21.38;;
51560;SDS011;37654;51.262;17.058;2022-12-18T04:59:43;56.83;;;20.90;;
51560;SDS011;37654;51.262;17.058;2022-12-18T05:02:09;55.53;;;23.70;;
51560;SDS011;37654;51.262;17.058;2022-12-18T05:04:34;59.50;;;23.70;;
51560;SDS011;37654;51.262;17.058;2022-12-18T05:07:00;56.00;;;21.73;;
51560;SDS011;37654;51.262;17.058;2022-12-18T05:09:25;60.17;;;23.77;;
51560;SDS011;37654;51.262;17.058;2022-12-18T05:11:51;53.85;;;23.90;;
51560;SDS011;37654;51.262;17.058;2022-12-18T05:14:16;62.25;;;23.58;;
51560;SDS011;37654;51.262;17.058;2022-12-18T05:16:41;55.55;;;22.90;;
51560;SDS011;37654;51.262;17.058;2022-12-18T05:19:07;53.88;;;23.13;;
51560;SDS011;37654;51.262;17.058;2022-12-18T05:21:32;61.72;;;24.02;;
51560;SDS011;37654;51.262;17.058;2022-12-18T05:23:58;57.75;;;23.30;;
51560;SDS011;37654;51.262;17.058;2022-12-18T05:26:23;58.22;;;23.23;;
51560;SDS011;37654;51.262;17.058;2022-12-18T05:28:48;65.65;;;26.70;;
51560;SDS011;37654;51.262;17.058;2022-12-18T05:31:14;55.25;;;24.48;;
51560;SDS011;37654;51.262;17.058;2022-12-18T05:33:40;55.00;;;23.20;;
51560;SDS011;37654;51.262;17.058;2022-12-18T05:36:06;55.03;;;23.00;;
51560;SDS011;37654;51.262;17.058;2022-12-18T05:38:33;55.70;;;21.75;;
51560;SDS011;37654;51.262;17.058;2022-12-18T05:41:00;55.55;;;22.33;;
51560;SDS011;37654;51.262;17.058;2022-12-18T05:43:26;60.80;;;23.63;;
51560;SDS011;37654;51.262;17.058;2022-12-18T05:45:52;61.63;;;26.00;;
51560;SDS011;37654;51.262;17.058;2022-12-18T05:48:18;56.83;;;23.92;;
51560;SDS011;37654;51.262;17.058;2022-12-18T05:50:45;62.00;;;24.95;;
51560;SDS011;37654;51.262;17.058;2022-12-18T05:53:11;56.75;;;25.35;;
51560;SDS011;37654;51.262;17.058;2022-12-18T05:55:39;54.85;;;23.95;;
51560;SDS011;37654;51.262;17.058;2022-12-18T05:58:06;58.13;;;25.45;;
51560;SDS011;37654;51.262;17.058;2022-12-18T06:00:33;62.72;;;25.90;;
51560;SDS011;37654;51.262;17.058;2022-12-18T06:03:00;46.33;;;21.50;;
51560;SDS011;37654;51.262;17.058;2022-12-18T06:05:26;51.45;;;22.52;;
51560;SDS011;37654;51.262;17.058;2022-12-18T06:07:51;57.08;;;21.60;;
51560;SDS011;37654;51.262;17.058;2022-12-18T06:10:17;54.55;;;22.75;;
51560;SDS011;37654;51.262;17.058;2022-12-18T06:12:42;60.30;;;25.35;;
51560;SDS011;37654;51.262;17.058;2022-12-18T06:15:08;49.67;;;23.77;;
51560;SDS011;37654;51.262;17.058;2022-12-18T06:17:34;50.10;;;22.42;;
51560;SDS011;37654;51.262;17.058;2022-12-18T06:20:00;58.83;;;23.65;;
51560;SDS011;37654;51.262;17.058;2022-12-18T06:22:26;60.65;;;23.60;;
51560;SDS011;37654;51.262;17.058;2022-12-18T06:24:52;57.03;;;23.30;;
51560;SDS011;37654;51.262;17.058;2022-12-18T06:27:17;62.40;;;25.05;;
51560;SDS011;37654;51.262;17.058;2022-12-18T06:29:43;55.85;;;24.58;;
51560;SDS011;37654;51.262;17.058;2022-12-18T06:32:08;58.58;;;23.40;;
51560;SDS011;37654;51.262;17.058;2022-12-18T06:34:34;60.22;;;23.08;;
51560;SDS011;37654;51.262;17.058;2022-12-18T06:37:01;63.70;;;26.45;;
51560;SDS011;37654;51.262;17.058;2022-12-18T06:39:27;58.55;;;24.15;;
51560;SDS011;37654;51.262;17.058;2022-12-18T06:41:52;63.47;;;24.83;;
51560;SDS011;37654;51.262;17.058;2022-12-18T06:44:18;49.38;;;22.90;;
51560;SDS011;37654;51.262;17.058;2022-12-18T06:46:43;65.88;;;25.95;;
51560;SDS011;37654;51.262;17.058;2022-12-18T06:49:09;59.30;;;26.05;;
51560;SDS011;37654;51.262;17.058;2022-12-18T06:51:34;58.63;;;24.55;;
51560;SDS011;37654;51.262;17.058;2022-12-18T06:54:01;60.15;;;25.73;;
51560;SDS011;37654;51.262;17.058;2022-12-18T06:56:26;61.97;;;26.40;;
51560;SDS011;37654;51.262;17.058;2022-12-18T06:58:52;58.58;;;25.95;;
51560;SDS011;37654;51.262;17.058;2022-12-18T07:01:17;62.00;;;26.35;;
51560;SDS011;37654;51.262;17.058;2022-12-18T07:03:43;65.75;;;26.83;;
51560;SDS011;37654;51.262;17.058;2022-12-18T07:06:15;54.85;;;24.50;;
51560;SDS011;37654;51.262;17.058;2022-12-18T07:08:43;58.20;;;25.90;;
51560;SDS011;37654;51.262;17.058;2022-12-18T07:11:09;62.22;;;27.70;;
51560;SDS011;37654;51.262;17.058;2022-12-18T07:13:35;67.22;;;29.65;;
51560;SDS011;37654;51.262;17.058;2022-12-18T07:16:34;63.00;;;29.05;;
51560;SDS011;37654;51.262;17.058;2022-12-18T07:18:55;60.60;;;28.55;;
51560;SDS011;37654;51.262;17.058;2022-12-18T07:21:21;60.83;;;25.45;;
51560;SDS011;37654;51.262;17.058;2022-12-18T07:23:48;60.90;;;25.23;;
51560;SDS011;37654;51.262;17.058;2022-12-18T07:26:15;62.65;;;25.33;;
51560;SDS011;37654;51.262;17.058;2022-12-18T07:28:42;51.17;;;23.60;;
51560;SDS011;37654;51.262;17.058;2022-12-18T07:31:09;65.05;;;28.50;;
51560;SDS011;37654;51.262;17.058;2022-12-18T07:33:36;52.17;;;23.88;;
51560;SDS011;37654;51.262;17.058;2022-12-18T07:36:02;51.97;;;24.45;;
51560;SDS011;37654;51.262;17.058;2022-12-18T07:38:29;47.88;;;22.58;;
51560;SDS011;37654;51.262;17.058;2022-12-18T07:40:59;50.83;;;24.50;;
51560;SDS011;37654;51.262;17.058;2022-12-18T07:43:35;52.00;;;24.27;;
51560;SDS011;37654;51.262;17.058;2022-12-18T07:46:01;51.45;;;24.00;;
51560;SDS011;37654;51.262;17.058;2022-12-18T07:48:28;52.47;;;21.65;;
51560;SDS011;37654;51.262;17.058;2022-12-18T07:50:55;51.17;;;22.70;;
51560;SDS011;37654;51.262;17.058;2022-12-18T07:53:24;55.08;;;25.38;;
51560;SDS011;37654;51.262;17.058;2022-12-18T07:55:54;60.70;;;29.83;;
51560;SDS011;37654;51.262;17.058;2022-12-18T07:58:20;57.67;;;26.95;;
51560;SDS011;37654;51.262;17.058;2022-12-18T08:00:45;57.65;;;24.73;;
51560;SDS011;37654;51.262;17.058;2022-12-18T08:03:11;57.08;;;26.48;;
51560;SDS011;37654;51.262;17.058;2022-12-18T08:05:37;57.67;;;26.20;;
51560;SDS011;37654;51.262;17.058;2022-12-18T08:08:02;56.63;;;27.30;;
51560;SDS011;37654;51.262;17.058;2022-12-18T08:10:28;57.17;;;28.02;;
51560;SDS011;37654;51.262;17.058;2022-12-18T08:12:53;65.13;;;25.85;;
51560;SDS011;37654;51.262;17.058;2022-12-18T08:15:18;60.03;;;27.38;;
51560;SDS011;37654;51.262;17.058;2022-12-18T08:17:44;57.22;;;26.73;;
51560;SDS011;37654;51.262;17.058;2022-12-18T08:20:09;65.38;;;29.73;;
51560;SDS011;37654;51.262;17.058;2022-12-18T08:22:35;69.30;;;31.13;;
51560;SDS011;37654;51.262;17.058;2022-12-18T08:25:01;69.03;;;31.38;;
51560;SDS011;37654;51.262;17.058;2022-12-18T08:27:28;63.55;;;28.75;;
51560;SDS011;37654;51.262;17.058;2022-12-18T08:29:54;65.63;;;29.13;;
51560;SDS011;37654;51.262;17.058;2022-12-18T08:32:20;67.15;;;30.30;;
51560;SDS011;37654;51.262;17.058;2022-12-18T08:34:45;72.95;;;32.45;;
51560;SDS011;37654;51.262;17.058;2022-12-18T08:37:11;71.15;;;32.35;;
51560;SDS011;37654;51.262;17.058;2022-12-18T08:39:36;70.53;;;32.45;;
51560;SDS011;37654;51.262;17.058;2022-12-18T08:42:02;73.32;;;32.28;;
51560;SDS011;37654;51.262;17.058;2022-12-18T08:44:41;72.82;;;32.90;;
51560;SDS011;37654;51.262;17.058;2022-12-18T08:47:07;75.28;;;32.35;;
51560;SDS011;37654;51.262;17.058;2022-12-18T08:49:33;71.57;;;33.80;;
51560;SDS011;37654;51.262;17.058;2022-12-18T08:51:59;74.43;;;37.30;;
51560;SDS011;37654;51.262;17.058;2022-12-18T08:54:24;74.55;;;33.67;;
51560;SDS011;37654;51.262;17.058;2022-12-18T08:56:50;80.13;;;37.65;;
51560;SDS011;37654;51.262;17.058;2022-12-18T08:59:17;82.45;;;38.65;;
51560;SDS011;37654;51.262;17.058;2022-12-18T09:01:43;87.55;;;39.70;;
51560;SDS011;37654;51.262;17.058;2022-12-18T09:04:09;82.85;;;37.63;;
51560;SDS011;37654;51.262;17.058;2022-12-18T09:06:35;74.85;;;34.90;;
51560;SDS011;37654;51.262;17.058;2022-12-18T09:09:00;77.47;;;37.25;;
51560;SDS011;37654;51.262;17.058;2022-12-18T09:11:26;78.85;;;37.75;;
51560;SDS011;37654;51.262;17.058;2022-12-18T09:13:54;93.38;;;44.22;;
51560;SDS011;37654;51.262;17.058;2022-12-18T09:16:20;82.43;;;37.95;;
51560;SDS011;37654;51.262;17.058;2022-12-18T09:18:47;86.80;;;40.08;;
51560;SDS011;37654;51.262;17.058;2022-12-18T09:21:17;63.20;;;29.67;;
51560;SDS011;37654;51.262;17.058;2022-12-18T09:23:43;64.15;;;29.70;;
51560;SDS011;37654;51.262;17.058;2022-12-18T09:26:13;61.65;;;29.08;;
51560;SDS011;37654;51.262;17.058;2022-12-18T09:28:39;58.90;;;28.45;;
51560;SDS011;37654;51.262;17.058;2022-12-18T09:31:08;62.22;;;31.70;;
51560;SDS011;37654;51.262;17.058;2022-12-18T09:33:35;57.92;;;27.42;;
51560;SDS011;37654;51.262;17.058;2022-12-18T09:36:02;58.67;;;27.17;;
51560;SDS011;37654;51.262;17.058;2022-12-18T09:38:30;64.65;;;30.05;;
51560;SDS011;37654;51.262;17.058;2022-12-18T09:41:00;53.95;;;24.90;;
51560;SDS011;37654;51.262;17.058;2022-12-18T09:43:33;60.95;;;26.50;;
51560;SDS011;37654;51.262;17.058;2022-12-18T09:46:06;67.43;;;31.92;;
51560;SDS011;37654;51.262;17.058;2022-12-18T09:48:35;61.42;;;28.25;;
51560;SDS011;37654;51.262;17.058;2022-12-18T09:51:12;59.08;;;27.50;;
51560;SDS011;37654;51.262;17.058;2022-12-18T09:53:41;68.97;;;28.75;;
51560;SDS011;37654;51.262;17.058;2022-12-18T09:56:18;60.92;;;29.15;;
51560;SDS011;37654;51.262;17.058;2022-12-18T10:01:20;53.97;;;25.63;;
51560;SDS011;37654;51.262;17.058;2022-12-18T10:03:47;56.30;;;27.00;;
51560;SDS011;37654;51.262;17.058;2022-12-18T10:06:14;58.03;;;25.60;;
51560;SDS011;37654;51.262;17.058;2022-12-18T10:08:53;54.78;;;26.25;;
51560;SDS011;37654;51.262;17.058;2022-12-18T10:27:41;60.42;;;28.98;;
51560;SDS011;37654;51.262;17.058;2022-12-18T10:30:14;63.83;;;29.73;;
51560;SDS011;37654;51.262;17.058;2022-12-18T10:32:45;57.80;;;27.98;;
51560;SDS011;37654;51.262;17.058;2022-12-18T10:35:15;58.10;;;27.77;;
51560;SDS011;37654;51.262;17.058;2022-12-18T10:40:25;57.47;;;25.33;;
51560;SDS011;37654;51.262;17.058;2022-12-18T10:45:41;54.78;;;26.05;;
51560;SDS011;37654;51.262;17.058;2022-12-18T10:50:47;57.40;;;26.10;;
51560;SDS011;37654;51.262;17.058;2022-12-18T10:53:20;55.60;;;24.73;;
51560;SDS011;37654;51.262;17.058;2022-12-18T10:55:48;54.28;;;26.67;;
51560;SDS011;37654;51.262;17.058;2022-12-18T10:58:28;67.30;;;31.77;;
51560;SDS011;37654;51.262;17.058;2022-12-18T11:03:36;58.85;;;26.85;;
51560;SDS011;37654;51.262;17.058;2022-12-18T11:06:03;57.42;;;25.98;;
51560;SDS011;37654;51.262;17.058;2022-12-18T11:08:30;56.92;;;27.65;;
51560;SDS011;37654;51.262;17.058;2022-12-18T11:10:56;56.75;;;26.92;;
51560;SDS011;37654;51.262;17.058;2022-12-18T11:13:22;52.97;;;26.17;;
51560;SDS011;37654;51.262;17.058;2022-12-18T11:15:49;57.67;;;26.98;;
51560;SDS011;37654;51.262;17.058;2022-12-18T11:18:20;53.33;;;27.38;;
51560;SDS011;37654;51.262;17.058;2022-12-18T11:20:54;52.63;;;25.75;;
51560;SDS011;37654;51.262;17.058;2022-12-18T11:23:25;55.22;;;24.60;;
51560;SDS011;37654;51.262;17.058;2022-12-18T11:25:58;54.40;;;26.23;;
51560;SDS011;37654;51.262;17.058;2022-12-18T11:28:46;48.92;;;25.30;;
51560;SDS011;37654;51.262;17.058;2022-12-18T11:31:24;53.55;;;26.35;;
51560;SDS011;37654;51.262;17.058;2022-12-18T11:36:45;52.38;;;25.52;;
51560;SDS011;37654;51.262;17.058;2022-12-18T11:39:19;55.40;;;26.35;;
51560;SDS011;37654;51.262;17.058;2022-12-18T11:44:43;55.70;;;26.63;;
51560;SDS011;37654;51.262;17.058;2022-12-18T11:50:00;58.50;;;27.33;;
51560;SDS011;37654;51.262;17.058;2022-12-18T11:52:30;58.45;;;26.75;;
51560;SDS011;37654;51.262;17.058;2022-12-18T11:55:04;54.77;;;26.33;;
51560;SDS011;37654;51.262;17.058;2022-12-18T12:00:12;57.72;;;26.75;;
51560;SDS011;37654;51.262;17.058;2022-12-18T12:21:46;64.32;;;30.40;;
51560;SDS011;37654;51.262;17.058;2022-12-18T12:24:33;56.75;;;26.25;;
51560;SDS011;37654;51.262;17.058;2022-12-18T12:27:06;60.00;;;27.23;;
51560;SDS011;37654;51.262;17.058;2022-12-18T12:34:29;68.45;;;31.35;;
51560;SDS011;37654;51.262;17.058;2022-12-18T12:37:09;61.00;;;31.52;;
51560;SDS011;37654;51.262;17.058;2022-12-18T12:39:44;70.57;;;32.10;;
51560;SDS011;37654;51.262;17.058;2022-12-18T12:42:14;67.13;;;30.38;;
51560;SDS011;37654;51.262;17.058;2022-12-18T12:47:27;73.85;;;32.97;;
51560;SDS011;37654;51.262;17.058;2022-12-18T12:49:58;80.10;;;37.50;;
51560;SDS011;37654;51.262;17.058;2022-12-18T12:55:14;66.28;;;32.35;;
51560;SDS011;37654;51.262;17.058;2022-12-18T12:58:05;71.43;;;32.45;;
51560;SDS011;37654;51.262;17.058;2022-12-18T13:00:36;65.47;;;31.77;;
51560;SDS011;37654;51.262;17.058;2022-12-18T13:03:15;74.78;;;35.85;;
51560;SDS011;37654;51.262;17.058;2022-12-18T13:08:25;72.68;;;33.55;;
51560;SDS011;37654;51.262;17.058;2022-12-18T13:10:55;71.07;;;32.17;;
51560;SDS011;37654;51.262;17.058;2022-12-18T13:13:53;77.28;;;33.03;;
51560;SDS011;37654;51.262;17.058;2022-12-18T13:16:21;82.68;;;36.72;;
51560;SDS011;37654;51.262;17.058;2022-12-18T13:18:49;78.13;;;37.22;;
51560;SDS011;37654;51.262;17.058;2022-12-18T13:21:21;77.15;;;35.33;;
51560;SDS011;37654;51.262;17.058;2022-12-18T13:23:49;78.60;;;36.17;;
51560;SDS011;37654;51.262;17.058;2022-12-18T13:31:53;78.57;;;33.55;;
51560;SDS011;37654;51.262;17.058;2022-12-18T13:36:40;76.38;;;36.08;;
51560;SDS011;37654;51.262;17.058;2022-12-18T13:41:48;75.25;;;36.28;;
51560;SDS011;37654;51.262;17.058;2022-12-18T13:46:54;78.00;;;36.15;;
51560;SDS011;37654;51.262;17.058;2022-12-18T13:49:24;88.30;;;40.33;;
51560;SDS011;37654;51.262;17.058;2022-12-18T13:51:58;82.25;;;37.42;;
51560;SDS011;37654;51.262;17.058;2022-12-18T13:54:37;77.65;;;35.08;;
51560;SDS011;37654;51.262;17.058;2022-12-18T13:57:25;77.50;;;35.35;;
51560;SDS011;37654;51.262;17.058;2022-12-18T13:59:50;74.53;;;35.53;;
51560;SDS011;37654;51.262;17.058;2022-12-18T14:02:17;59.10;;;28.98;;
51560;SDS011;37654;51.262;17.058;2022-12-18T14:04:47;69.13;;;29.50;;
51560;SDS011;37654;51.262;17.058;2022-12-18T14:07:32;66.22;;;30.80;;
51560;SDS011;37654;51.262;17.058;2022-12-18T14:09:58;62.05;;;28.48;;
51560;SDS011;37654;51.262;17.058;2022-12-18T14:12:32;65.78;;;28.90;;
51560;SDS011;37654;51.262;17.058;2022-12-18T14:21:02;66.15;;;31.20;;
51560;SDS011;37654;51.262;17.058;2022-12-18T14:26:21;82.18;;;34.35;;
51560;SDS011;37654;51.262;17.058;2022-12-18T14:28:54;72.78;;;31.67;;
51560;SDS011;37654;51.262;17.058;2022-12-18T14:31:45;70.85;;;34.13;;
51560;SDS011;37654;51.262;17.058;2022-12-18T14:34:15;74.55;;;34.10;;
51560;SDS011;37654;51.262;17.058;2022-12-18T14:36:41;77.97;;;35.85;;
51560;SDS011;37654;51.262;17.058;2022-12-18T14:39:17;76.18;;;33.38;;
51560;SDS011;37654;51.262;17.058;2022-12-18T14:41:43;87.55;;;38.58;;
51560;SDS011;37654;51.262;17.058;2022-12-18T14:44:10;80.95;;;36.63;;
51560;SDS011;37654;51.262;17.058;2022-12-18T14:46:38;87.85;;;38.63;;
51560;SDS011;37654;51.262;17.058;2022-12-18T14:51:56;81.13;;;37.53;;
51560;SDS011;37654;51.262;17.058;2022-12-18T14:54:24;89.85;;;39.85;;
51560;SDS011;37654;51.262;17.058;2022-12-18T14:57:36;83.68;;;40.47;;
51560;SDS011;37654;51.262;17.058;2022-12-18T14:59:47;94.82;;;42.38;;
51560;SDS011;37654;51.262;17.058;2022-12-18T15:05:00;85.38;;;40.13;;
51560;SDS011;37654;51.262;17.058;2022-12-18T15:21:19;95.82;;;43.65;;
51560;SDS011;37654;51.262;17.058;2022-12-18T15:25:56;113.07;;;47.42;;
51560;SDS011;37654;51.262;17.058;2022-12-18T15:33:45;113.03;;;50.63;;
51560;SDS011;37654;51.262;17.058;2022-12-18T15:36:28;110.55;;;47.92;;
51560;SDS011;37654;51.262;17.058;2022-12-18T15:39:02;118.00;;;50.80;;
51560;SDS011;37654;51.262;17.058;2022-12-18T15:41:30;116.50;;;48.33;;
51560;SDS011;37654;51.262;17.058;2022-12-18T15:44:00;102.82;;;44.13;;
51560;SDS011;37654;51.262;17.058;2022-12-18T15:46:28;100.57;;;46.95;;
51560;SDS011;37654;51.262;17.058;2022-12-18T15:48:54;115.68;;;49.75;;
51560;SDS011;37654;51.262;17.058;2022-12-18T15:51:56;108.05;;;46.47;;
51560;SDS011;37654;51.262;17.058;2022-12-18T15:54:17;112.95;;;48.58;;
51560;SDS011;37654;51.262;17.058;2022-12-18T15:57:08;97.75;;;46.22;;
51560;SDS011;37654;51.262;17.058;2022-12-18T15:59:52;96.47;;;46.33;;
51560;SDS011;37654;51.262;17.058;2022-12-18T16:02:21;105.68;;;44.08;;
51560;SDS011;37654;51.262;17.058;2022-12-18T16:04:48;116.35;;;49.80;;
51560;SDS011;37654;51.262;17.058;2022-12-18T16:07:14;101.00;;;44.25;;
51560;SDS011;37654;51.262;17.058;2022-12-18T16:09:40;106.28;;;44.33;;
51560;SDS011;37654;51.262;17.058;2022-12-18T16:12:19;113.68;;;47.92;;
51560;SDS011;37654;51.262;17.058;2022-12-18T16:14:47;94.60;;;41.03;;
51560;SDS011;37654;51.262;17.058;2022-12-18T16:17:13;100.90;;;43.22;;
51560;SDS011;37654;51.262;17.058;2022-12-18T16:19:39;110.82;;;45.75;;
51560;SDS011;37654;51.262;17.058;2022-12-18T16:22:14;91.13;;;42.42;;
51560;SDS011;37654;51.262;17.058;2022-12-18T16:27:09;109.07;;;46.43;;
51560;SDS011;37654;51.262;17.058;2022-12-18T16:29:34;113.57;;;45.15;;
51560;SDS011;37654;51.262;17.058;2022-12-18T16:32:00;98.15;;;44.40;;
51560;SDS011;37654;51.262;17.058;2022-12-18T16:34:27;96.03;;;43.67;;
51560;SDS011;37654;51.262;17.058;2022-12-18T16:37:06;98.68;;;41.67;;
51560;SDS011;37654;51.262;17.058;2022-12-18T16:39:33;106.57;;;44.33;;
51560;SDS011;37654;51.262;17.058;2022-12-18T16:41:59;99.30;;;44.45;;
51560;SDS011;37654;51.262;17.058;2022-12-18T16:44:25;98.05;;;42.75;;
51560;SDS011;37654;51.262;17.058;2022-12-18T16:46:51;108.63;;;42.97;;
51560;SDS011;37654;51.262;17.058;2022-12-18T16:49:17;101.05;;;44.95;;
51560;SDS011;37654;51.262;17.058;2022-12-18T16:51:43;109.68;;;45.97;;
51560;SDS011;37654;51.262;17.058;2022-12-18T16:54:11;115.72;;;46.42;;
51560;SDS011;37654;51.262;17.058;2022-12-18T16:56:36;111.70;;;44.38;;
51560;SDS011;37654;51.262;17.058;2022-12-18T16:59:02;110.70;;;46.45;;
51560;SDS011;37654;51.262;17.058;2022-12-18T17:01:29;115.50;;;46.53;;
51560;SDS011;37654;51.262;17.058;2022-12-18T17:03:58;106.22;;;47.15;;
51560;SDS011;37654;51.262;17.058;2022-12-18T17:06:25;106.88;;;48.30;;
51560;SDS011;37654;51.262;17.058;2022-12-18T17:08:59;121.57;;;47.50;;